Time;durP1;ratioP1;P1;durP2;ratioP2;P2;SDS_P1;SDS_P2;PMS_P1;PMS_P2;Temp;Humidity;BMP_temperature;BMP_pressure;BME280_temperature;BME280_humidity;BME280_pressure;Samples;Min_cycle;Max_cycle;Signal;HPM_P1;HPM_P2
2023/01/21 00:01:18;;;;;;;0.20;0.20;;;;;;;0.68;80.29;94704.38;107010;1276;22513;-83
2023/01/21 00:03:46;;;;;;;0.40;0.30;;;;;;;0.68;79.76;94701.08;107072;1276;25506;-84
2023/01/21 00:06:14;;;;;;;0.40;0.40;;;;;;;0.70;79.65;94705.95;107055;1275;22563;-83
2023/01/21 00:08:42;;;;;;;0.30;0.30;;;;;;;0.72;79.20;94704.92;107052;1275;24057;-84
2023/01/21 00:11:14;;;;;;;1.60;0.60;;;;;;;0.74;79.25;94702.16;106908;1276;22521;-84
2023/01/21 00:13:43;;;;;;;1.00;0.60;;;;;;;0.76;79.72;94711.34;106715;1276;23144;-83
2023/01/21 00:16:12;;;;;;;0.50;0.50;;;;;;;0.75;79.79;94718.09;106734;1275;25580;-83
2023/01/21 00:18:40;;;;;;;0.30;0.30;;;;;;;0.72;80.16;94715.48;106735;1276;24252;-83
2023/01/21 00:21:09;;;;;;;0.50;0.50;;;;;;;0.70;79.83;94716.51;106769;1275;25396;-83
2023/01/21 00:23:37;;;;;;;1.00;0.70;;;;;;;0.72;80.22;94719.29;106760;1275;25460;-84
2023/01/21 00:26:07;;;;;;;1.10;0.80;;;;;;;0.71;80.70;94718.92;106637;1276;24459;-83
2023/01/21 00:28:37;;;;;;;0.50;0.40;;;;;;;0.67;80.71;94724.45;106682;1275;22793;-83
2023/01/21 00:31:06;;;;;;;0.40;0.40;;;;;;;0.64;80.64;94725.30;106702;1275;22758;-83
2023/01/21 00:33:36;;;;;;;0.40;0.40;;;;;;;0.65;80.75;94727.55;106675;1275;22523;-83
2023/01/21 00:36:07;;;;;;;1.20;0.50;;;;;;;0.65;81.02;94730.15;106689;1276;22645;-83
2023/01/21 00:38:35;;;;;;;0.50;0.40;;;;;;;0.66;80.83;94728.95;106774;1275;24377;-83
2023/01/21 00:41:06;;;;;;;0.40;0.40;;;;;;;0.67;80.91;94724.29;106671;1275;22520;-83
2023/01/21 00:43:35;;;;;;;0.80;0.50;;;;;;;0.72;80.75;94723.79;106742;1275;22524;-82
2023/01/21 00:46:03;;;;;;;0.40;0.40;;;;;;;0.74;80.58;94728.47;106737;1276;24196;-83
2023/01/21 00:48:31;;;;;;;0.50;0.50;;;;;;;0.75;80.40;94723.80;106673;1276;25457;-84
2023/01/21 00:50:59;;;;;;;0.50;0.50;;;;;;;0.78;80.30;94727.45;106751;1276;22509;-84
2023/01/21 00:53:31;;;;;;;0.50;0.50;;;;;;;0.83;79.48;94725.91;107046;1275;24378;-84
2023/01/21 00:56:06;;;;;;;0.50;0.50;;;;;;;0.87;79.89;94722.11;106837;1276;22514;-83
2023/01/21 00:58:34;;;;;;;0.40;0.30;;;;;;;0.87;80.19;94725.58;106759;1275;22734;-81
2023/01/21 01:01:07;;;;;;;0.40;0.40;;;;;;;0.88;80.14;94728.18;106899;1276;22644;-83
2023/01/21 01:03:37;;;;;;;0.50;0.50;;;;;;;0.87;78.63;94728.88;106824;1276;22651;-83
2023/01/21 01:06:12;;;;;;;0.90;0.50;;;;;;;0.87;78.01;94733.55;106742;1276;22578;-83
2023/01/21 01:08:41;;;;;;;0.50;0.40;;;;;;;0.89;77.54;94740.31;106721;1275;22554;-83
2023/01/21 01:11:11;;;;;;;0.30;0.30;;;;;;;0.89;77.38;94738.92;106734;1276;22989;-84
2023/01/21 01:13:39;;;;;;;0.50;0.50;;;;;;;0.86;77.90;94738.91;106675;1276;22500;-83
2023/01/21 01:16:11;;;;;;;1.40;0.40;;;;;;;0.83;78.42;94747.56;106955;1276;22523;-83
2023/01/21 01:18:39;;;;;;;0.40;0.40;;;;;;;0.77;78.61;94748.58;106689;1276;22798;-84
2023/01/21 01:21:13;;;;;;;0.60;0.40;;;;;;;0.72;78.10;94757.71;106704;1275;22527;-83
2023/01/21 01:23:41;;;;;;;0.30;0.30;;;;;;;0.71;77.62;94754.77;106654;1275;25268;-83
2023/01/21 01:26:13;;;;;;;2.80;0.40;;;;;;;0.69;78.47;94755.44;106704;1276;22515;-84
2023/01/21 01:28:41;;;;;;;0.50;0.50;;;;;;;0.66;78.63;94755.08;106742;1276;22650;-83
2023/01/21 01:31:13;;;;;;;0.50;0.50;;;;;;;0.65;78.03;94760.61;106691;1276;22517;-84
2023/01/21 01:33:41;;;;;;;0.50;0.40;;;;;;;0.65;77.94;94758.02;106744;1275;23137;-83
2023/01/21 01:36:18;;;;;;;0.70;0.40;;;;;;;0.65;77.26;94764.08;106641;1275;22643;-83
2023/01/21 01:38:46;;;;;;;0.50;0.50;;;;;;;0.68;76.74;94763.75;106641;1276;22520;-84
2023/01/21 01:41:22;;;;;;;0.50;0.50;;;;;;;0.69;76.43;94768.08;106698;1276;22650;-83
2023/01/21 01:43:59;;;;;;;0.30;0.30;;;;;;;0.68;76.83;94765.30;106681;1276;22469;-83
2023/01/21 01:46:35;;;;;;;0.30;0.30;;;;;;;0.64;76.77;94768.91;106710;1275;22524;-83
2023/01/21 01:49:18;;;;;;;1.40;0.50;;;;;;;0.63;76.73;94764.91;106698;1275;22655;-83
2023/01/21 01:51:57;;;;;;;0.40;0.40;;;;;;;0.63;77.32;94768.91;106598;1275;22542;-84
2023/01/21 01:54:34;;;;;;;0.80;0.40;;;;;;;0.61;77.64;94773.74;106747;1276;25356;-84
2023/01/21 01:57:08;;;;;;;2.20;0.60;;;;;;;0.57;78.02;94774.06;106686;1270;22550;-84
2023/01/21 01:59:36;;;;;;;0.70;0.50;;;;;;;0.52;78.86;94780.79;106703;1276;24192;-84
2023/01/21 02:02:08;;;;;;;0.60;0.50;;;;;;;0.45;79.76;94783.84;106752;1259;22877;-83
2023/01/21 02:04:47;;;;;;;1.10;0.60;;;;;;;0.36;80.05;94783.78;106636;1263;22694;-83
2023/01/21 02:07:17;;;;;;;0.50;0.50;;;;;;;0.33;80.67;94780.81;106935;1275;22513;-83
2023/01/21 02:09:46;;;;;;;0.50;0.40;;;;;;;0.29;81.18;94783.02;107125;1275;22533;-83
2023/01/21 02:12:16;;;;;;;0.50;0.50;;;;;;;0.26;81.20;94784.74;106904;1276;24228;-83
2023/01/21 02:14:45;;;;;;;0.80;0.70;;;;;;;0.26;80.96;94784.74;107022;1276;22539;-84
2023/01/21 02:17:47;;;;;;;1.10;0.90;;;;;;;0.25;81.84;94783.70;106826;1276;24218;-83
2023/01/21 02:20:33;;;;;;;0.60;0.60;;;;;;;0.29;81.54;94782.86;106545;1276;22523;-83
2023/01/21 02:23:17;;;;;;;1.90;1.40;;;;;;;0.34;81.92;94787.40;106700;1275;24441;-83
2023/01/21 02:26:09;;;;;;;2.30;1.20;;;;;;;0.35;82.33;94792.60;106669;1275;22819;-83
2023/01/21 02:28:59;;;;;;;1.90;1.00;;;;;;;0.41;82.38;94805.09;106634;1276;22520;-83
2023/01/21 02:31:56;;;;;;;1.20;1.10;;;;;;;0.47;83.64;94808.08;107030;1276;22615;-84
2023/01/21 02:34:45;;;;;;;1.70;1.20;;;;;;;0.52;83.53;94810.18;106680;1276;24222;-83
2023/01/21 02:37:26;;;;;;;1.30;1.00;;;;;;;0.56;83.63;94807.29;107021;1276;24410;-83
2023/01/21 02:40:10;;;;;;;1.40;0.70;;;;;;;0.51;83.42;94807.24;107070;1276;22611;-83
2023/01/21 02:42:49;;;;;;;2.30;1.50;;;;;;;0.54;84.30;94807.09;107081;1276;22533;-84
2023/01/21 02:45:34;;;;;;;2.40;1.80;;;;;;;0.60;84.59;94810.43;107144;1276;25385;-83
2023/01/21 02:48:13;;;;;;;2.00;1.50;;;;;;;0.68;84.51;94805.65;107035;1276;24196;-83
2023/01/21 02:50:45;;;;;;;2.00;1.40;;;;;;;0.73;83.83;94806.70;107112;1276;22559;-83
2023/01/21 02:53:33;;;;;;;1.80;1.30;;;;;;;0.74;83.69;94803.93;107097;1276;24225;-83
2023/01/21 02:56:11;;;;;;;1.50;1.40;;;;;;;0.81;83.88;94803.30;106709;1276;22629;-83
2023/01/21 02:58:44;;;;;;;1.90;1.50;;;;;;;0.84;83.66;94805.56;106654;1276;22815;-83
2023/01/21 03:01:31;;;;;;;1.40;1.10;;;;;;;0.85;83.25;94806.77;106782;1263;25334;-83
2023/01/21 03:04:24;;;;;;;0.30;0.30;;;;;;;0.89;83.53;94810.95;106634;1276;25467;-83
2023/01/21 03:07:37;;;;;;;1.10;0.50;;;;;;;0.96;83.92;94821.73;106673;1276;22527;-83
2023/01/21 03:10:17;;;;;;;0.50;0.50;;;;;;;1.04;83.81;94830.79;106988;1276;25355;-83
2023/01/21 03:13:01;;;;;;;0.40;0.40;;;;;;;1.04;83.28;94835.10;107067;1276;25367;-83
2023/01/21 03:18:39;;;;;;;0.60;0.50;;;;;;;1.01;82.96;94840.64;106772;1275;24467;-83
2023/01/21 03:21:12;;;;;;;0.50;0.50;;;;;;;0.99;83.16;94844.42;106694;1275;24240;-83
2023/01/21 03:23:46;;;;;;;0.60;0.50;;;;;;;0.90;82.84;94849.39;106753;1275;24230;-83
2023/01/21 03:26:19;;;;;;;0.30;0.30;;;;;;;0.89;83.31;94857.71;106797;1276;24377;-83
2023/01/21 03:28:51;;;;;;;0.60;0.50;;;;;;;0.84;82.83;94859.23;106652;1276;24812;-83
2023/01/21 03:31:30;;;;;;;1.00;0.80;;;;;;;0.86;83.14;94862.71;106681;1276;22643;-83
2023/01/21 03:34:03;;;;;;;1.10;0.60;;;;;;;0.85;82.19;94864.08;106701;1275;22520;-83
2023/01/21 03:36:40;;;;;;;1.50;1.00;;;;;;;0.88;82.69;94862.73;106702;1276;25396;-84
2023/01/21 03:39:33;;;;;;;1.80;1.30;;;;;;;0.90;82.21;94862.73;106615;1276;25462;-83
2023/01/21 03:42:02;;;;;;;1.80;0.90;;;;;;;0.85;81.60;94862.88;106716;1275;25382;-83
2023/01/21 03:44:30;;;;;;;0.90;0.90;;;;;;;0.80;81.46;94864.56;106792;1275;25429;-83
2023/01/21 03:47:17;;;;;;;2.30;1.10;;;;;;;0.77;81.70;94876.84;106767;1276;25329;-84
2023/01/21 03:50:15;;;;;;;1.70;1.00;;;;;;;0.73;81.91;94879.92;106668;1275;25182;-83
2023/01/21 03:52:45;;;;;;;1.10;1.00;;;;;;;0.71;82.48;94881.64;106691;1275;26506;-84
2023/01/21 03:55:15;;;;;;;1.80;1.00;;;;;;;0.66;82.74;94882.11;106731;1276;22530;-83
2023/01/21 03:57:43;;;;;;;1.50;1.20;;;;;;;0.62;82.92;94883.13;106696;1276;22598;-84
2023/01/21 04:00:12;;;;;;;1.60;0.90;;;;;;;0.61;83.01;94891.42;106672;1275;25392;-83
2023/01/21 04:02:40;;;;;;;0.90;0.90;;;;;;;0.65;83.05;94894.92;106642;1275;22580;-83
2023/01/21 04:05:09;;;;;;;1.10;0.80;;;;;;;0.68;82.92;94902.91;106670;1276;25315;-83
2023/01/21 04:07:37;;;;;;;6.40;2.50;;;;;;;0.67;83.00;94908.59;106725;1276;23143;-83
2023/01/21 04:10:06;;;;;;;23.90;8.30;;;;;;;0.56;83.95;94925.13;106658;1275;24072;-84
2023/01/21 04:12:34;;;;;;;11.90;6.30;;;;;;;0.48;84.10;94936.83;106798;1276;22538;-83
2023/01/21 04:15:02;;;;;;;14.30;5.40;;;;;;;0.47;83.93;94945.64;106725;1276;25313;-83
2023/01/21 04:17:32;;;;;;;23.30;8.70;;;;;;;0.49;84.07;94947.56;106640;1275;24221;-83
2023/01/21 04:20:00;;;;;;;14.50;6.60;;;;;;;0.54;84.27;94953.31;106645;1276;22514;-83
2023/01/21 04:22:28;;;;;;;13.10;4.60;;;;;;;0.57;84.21;94955.08;106707;1276;25468;-83
2023/01/21 04:24:56;;;;;;;9.10;3.80;;;;;;;0.61;84.14;94961.01;106718;1276;22642;-83
2023/01/21 04:27:25;;;;;;;6.50;2.80;;;;;;;0.64;84.21;94969.86;106667;1275;24183;-83
2023/01/21 04:29:53;;;;;;;1.90;1.60;;;;;;;0.70;84.54;94975.10;106805;1275;22553;-83
2023/01/21 04:32:21;;;;;;;2.00;1.70;;;;;;;0.72;84.59;94977.38;106743;1275;24497;-83
2023/01/21 04:34:49;;;;;;;2.50;2.00;;;;;;;0.76;84.71;94962.70;106692;1275;22530;-83
2023/01/21 04:37:17;;;;;;;3.20;1.70;;;;;;;0.79;84.70;94954.59;106768;1275;22531;-83
2023/01/21 04:39:45;;;;;;;2.00;1.80;;;;;;;0.80;84.81;94948.19;106704;1276;22523;-83
2023/01/21 04:42:14;;;;;;;2.10;1.80;;;;;;;0.80;84.92;94953.20;106714;1276;22668;-83
2023/01/21 04:44:43;;;;;;;2.10;1.80;;;;;;;0.83;84.88;94965.35;106698;1275;26610;-83
2023/01/21 04:47:11;;;;;;;2.30;1.80;;;;;;;0.90;85.07;94967.66;106675;1276;25445;-83
2023/01/21 04:49:40;;;;;;;2.30;1.60;;;;;;;0.92;84.66;94954.00;106744;1276;22533;-83
2023/01/21 04:52:08;;;;;;;2.00;1.70;;;;;;;0.96;84.97;94946.41;106728;1276;25373;-83
2023/01/21 04:54:36;;;;;;;2.10;1.80;;;;;;;1.03;85.02;94943.70;106694;1276;22653;-84
2023/01/21 04:57:04;;;;;;;3.00;1.80;;;;;;;1.05;84.60;94944.92;106839;1276;22770;-84
2023/01/21 04:59:32;;;;;;;2.60;2.00;;;;;;;1.04;84.25;94939.36;106668;1276;23127;-83
2023/01/21 05:02:01;;;;;;;2.20;1.60;;;;;;;1.05;84.69;94944.23;106683;1276;26586;-81
2023/01/21 05:04:29;;;;;;;2.10;1.40;;;;;;;1.14;84.81;94950.88;106643;1275;22520;-83
2023/01/21 05:06:58;;;;;;;1.70;1.50;;;;;;;1.17;84.76;94954.53;106650;1276;25379;-83
2023/01/21 05:09:26;;;;;;;1.80;1.60;;;;;;;1.16;84.17;94954.34;106612;1276;22663;-83
2023/01/21 05:11:54;;;;;;;3.10;2.40;;;;;;;1.13;84.28;94958.48;106776;1276;25335;-84
2023/01/21 05:14:22;;;;;;;2.00;1.70;;;;;;;1.20;84.68;94964.95;106649;1264;25628;-84
2023/01/21 05:16:50;;;;;;;11.20;5.50;;;;;;;1.19;84.15;94969.44;106673;1276;22763;-83
2023/01/21 05:19:18;;;;;;;13.30;6.20;;;;;;;1.19;84.71;94979.48;106792;1275;25384;-83
2023/01/21 05:21:46;;;;;;;10.30;5.10;;;;;;;1.23;84.79;94986.63;106664;1276;24360;-83
2023/01/21 05:24:15;;;;;;;6.90;3.30;;;;;;;1.26;84.74;94988.20;106709;1276;22523;-83
2023/01/21 05:26:43;;;;;;;5.60;3.70;;;;;;;1.25;84.65;94973.82;106717;1276;22527;-83
2023/01/21 05:29:11;;;;;;;4.90;3.20;;;;;;;1.21;84.61;94971.18;106663;1275;22537;-84
2023/01/21 05:31:39;;;;;;;4.70;2.90;;;;;;;1.13;84.76;94978.23;106705;1275;22556;-83
2023/01/21 05:34:09;;;;;;;3.90;2.70;;;;;;;1.10;84.89;94974.56;106630;1276;25350;-84
2023/01/21 05:36:37;;;;;;;3.50;1.80;;;;;;;1.06;84.93;94970.05;106708;1276;24260;-84
2023/01/21 05:39:05;;;;;;;2.20;1.90;;;;;;;0.97;84.92;94967.37;106799;1275;25305;-83
2023/01/21 05:41:34;;;;;;;2.60;2.20;;;;;;;0.84;85.24;94965.71;106593;1253;22527;-83
2023/01/21 05:44:02;;;;;;;3.20;2.10;;;;;;;0.72;85.71;94983.95;106633;1275;22524;-84
2023/01/21 05:46:30;;;;;;;2.70;2.00;;;;;;;0.67;85.69;95000.17;106724;1276;22864;-83
2023/01/21 05:48:58;;;;;;;2.50;2.10;;;;;;;0.64;85.63;95015.02;106664;1275;23946;-84
2023/01/21 05:51:26;;;;;;;3.00;2.70;;;;;;;0.62;85.71;95024.01;106694;1273;22539;-84
2023/01/21 05:53:54;;;;;;;3.80;3.10;;;;;;;0.59;85.89;95028.13;106671;1275;22550;-83
2023/01/21 05:56:23;;;;;;;5.30;3.10;;;;;;;0.58;85.80;95022.92;106641;1276;22523;-84
2023/01/21 05:58:51;;;;;;;2.80;2.40;;;;;;;0.57;85.87;95027.06;106646;1275;25436;-83
2023/01/21 06:01:19;;;;;;;3.40;2.60;;;;;;;0.50;85.67;95040.32;106802;1276;25380;-84
2023/01/21 06:03:47;;;;;;;2.60;2.20;;;;;;;0.43;85.78;95046.64;106694;1276;25379;-84
2023/01/21 06:06:15;;;;;;;2.70;2.00;;;;;;;0.42;85.95;95060.64;106672;1275;22528;-84
2023/01/21 06:08:43;;;;;;;3.20;2.30;;;;;;;0.38;86.06;95069.09;106655;1276;22570;-84
2023/01/21 06:11:12;;;;;;;3.30;2.60;;;;;;;0.37;86.22;95065.08;106651;1275;23888;-84
2023/01/21 06:13:40;;;;;;;2.80;2.30;;;;;;;0.39;86.24;95066.16;106679;1276;22531;-80
2023/01/21 06:16:08;;;;;;;2.60;1.70;;;;;;;0.42;86.14;95068.09;106723;1272;23076;-84
2023/01/21 06:18:36;;;;;;;2.00;1.70;;;;;;;0.43;86.21;95071.91;106637;1276;22536;-84
2023/01/21 06:21:04;;;;;;;2.50;2.10;;;;;;;0.47;86.30;95077.66;106656;1276;23776;-84
2023/01/21 06:23:32;;;;;;;3.00;2.20;;;;;;;0.49;86.23;95072.31;106673;1276;24448;-84
2023/01/21 06:26:02;;;;;;;2.50;1.80;;;;;;;0.49;86.51;95072.67;106643;1276;25376;-84
2023/01/21 06:28:30;;;;;;;3.40;2.00;;;;;;;0.47;86.72;95075.94;106709;1276;25284;-84
2023/01/21 06:30:58;;;;;;;2.30;2.10;;;;;;;0.48;86.49;95081.83;106695;1275;22532;-83
2023/01/21 06:33:26;;;;;;;2.50;2.20;;;;;;;0.49;86.55;95085.13;106691;1276;25458;-84
2023/01/21 06:35:54;;;;;;;2.80;2.30;;;;;;;0.51;86.70;95088.61;106697;1275;22964;-84
2023/01/21 06:38:22;;;;;;;3.70;2.60;;;;;;;0.53;86.54;95085.70;106657;1275;22527;-83
2023/01/21 06:40:51;;;;;;;3.00;2.40;;;;;;;0.58;86.76;95090.95;106635;1275;24249;-83
2023/01/21 06:43:19;;;;;;;2.40;2.00;;;;;;;0.65;86.67;95084.45;106723;1276;22514;-84
2023/01/21 06:45:47;;;;;;;2.10;1.70;;;;;;;0.71;86.57;95083.65;106686;1276;25207;-81
2023/01/21 06:48:15;;;;;;;2.30;1.90;;;;;;;0.76;86.29;95087.69;106737;1275;22519;-84
2023/01/21 06:50:43;;;;;;;2.60;2.10;;;;;;;0.78;85.96;95088.92;106265;1259;587985;-84
2023/01/21 06:53:12;;;;;;;2.80;2.20;;;;;;;0.77;85.79;95096.88;106708;1276;25245;-84
2023/01/21 06:55:40;;;;;;;2.60;2.10;;;;;;;0.81;86.05;95099.00;106646;1276;23880;-83
2023/01/21 06:58:08;;;;;;;2.60;1.80;;;;;;;0.87;85.99;95105.80;106739;1272;23920;-83
2023/01/21 07:00:36;;;;;;;2.40;2.20;;;;;;;1.00;86.57;95110.10;106654;1276;22527;-84
2023/01/21 07:03:04;;;;;;;3.10;2.40;;;;;;;1.11;86.59;95107.96;106705;1276;24232;-83
2023/01/21 07:05:32;;;;;;;2.50;2.10;;;;;;;1.19;85.88;95111.66;106658;1276;24043;-83
2023/01/21 07:08:00;;;;;;;2.90;2.20;;;;;;;1.22;85.42;95107.70;106687;1276;22525;-84
2023/01/21 07:10:29;;;;;;;2.50;2.30;;;;;;;1.24;85.30;95114.67;106698;1275;22544;-84
2023/01/21 07:12:57;;;;;;;2.60;2.40;;;;;;;1.31;85.44;95127.20;106646;1276;25393;-84
2023/01/21 07:15:29;;;;;;;2.90;2.50;;;;;;;1.36;85.54;95127.95;106592;1276;26004;-84
2023/01/21 07:17:57;;;;;;;2.80;2.50;;;;;;;1.38;85.44;95124.85;106743;1276;25357;-84
2023/01/21 07:20:26;;;;;;;3.50;2.70;;;;;;;1.39;85.00;95125.55;106632;1276;23999;-84
2023/01/21 07:22:54;;;;;;;3.60;2.60;;;;;;;1.38;84.96;95133.33;106710;1276;22664;-84
2023/01/21 07:25:22;;;;;;;3.60;3.00;;;;;;;1.38;84.93;95132.99;106780;1276;22772;-84
2023/01/21 07:27:50;;;;;;;4.20;2.80;;;;;;;1.36;85.00;95136.61;106743;1276;22525;-84
2023/01/21 07:30:19;;;;;;;3.00;2.50;;;;;;;1.33;84.93;95140.58;106690;1275;25461;-84
2023/01/21 07:32:47;;;;;;;3.10;2.80;;;;;;;1.30;84.93;95133.95;106768;1276;24244;-84
2023/01/21 07:35:15;;;;;;;8.50;7.00;;;;;;;1.30;85.12;95132.75;106663;1275;22520;-84
2023/01/21 07:37:44;;;;;;;8.00;6.60;;;;;;;1.23;84.67;95155.89;106685;1276;25281;-84
2023/01/21 07:40:12;;;;;;;6.90;6.10;;;;;;;1.23;85.21;95166.46;106672;1276;24215;-84
2023/01/21 07:42:40;;;;;;;6.00;4.80;;;;;;;1.26;85.11;95160.60;106679;1276;25248;-84
2023/01/21 07:45:09;;;;;;;4.40;3.20;;;;;;;1.26;84.97;95150.20;106705;1275;26685;-84
2023/01/21 07:47:37;;;;;;;4.80;3.40;;;;;;;1.25;85.01;95147.77;106635;1275;22513;-84
2023/01/21 07:50:07;;;;;;;4.00;3.00;;;;;;;1.29;85.28;95136.20;106679;1276;24240;-84
2023/01/21 07:52:35;;;;;;;4.90;3.20;;;;;;;1.31;85.10;95137.44;106787;1276;22501;-84
2023/01/21 07:55:04;;;;;;;4.30;3.50;;;;;;;1.30;85.20;95141.91;106713;1275;24234;-84
2023/01/21 07:57:33;;;;;;;4.10;3.40;;;;;;;1.29;85.09;95151.96;106609;1276;25334;-84
2023/01/21 08:00:01;;;;;;;4.70;3.60;;;;;;;1.33;85.28;95158.94;106739;1276;22527;-84
2023/01/21 08:02:39;;;;;;;5.30;3.80;;;;;;;1.28;85.35;95162.69;106655;1276;24041;-84
2023/01/21 08:05:08;;;;;;;4.90;3.60;;;;;;;1.29;85.37;95167.90;106690;1276;22527;-84
2023/01/21 08:07:36;;;;;;;4.10;3.30;;;;;;;1.26;85.31;95169.78;106708;1276;24214;-84
2023/01/21 08:10:05;;;;;;;5.40;4.70;;;;;;;1.20;85.50;95172.15;106748;1276;24196;-84
2023/01/21 08:12:34;;;;;;;6.20;4.40;;;;;;;1.19;85.43;95186.16;106648;1276;22523;-84
2023/01/21 08:15:02;;;;;;;7.50;4.30;;;;;;;1.18;85.52;95189.44;106670;1275;26489;-84
2023/01/21 08:17:30;;;;;;;7.70;4.50;;;;;;;1.19;85.53;95194.13;106646;1276;23908;-84
2023/01/21 08:19:58;;;;;;;4.70;4.00;;;;;;;1.21;85.69;95193.63;106646;1276;22532;-83
2023/01/21 08:22:27;;;;;;;5.50;4.20;;;;;;;1.23;85.74;95191.41;106733;1276;22540;-84
2023/01/21 08:24:55;;;;;;;5.20;3.40;;;;;;;1.23;85.83;95193.65;106724;1275;24368;-84
2023/01/21 08:27:23;;;;;;;5.10;4.20;;;;;;;1.28;85.91;95199.42;106713;1275;22601;-84
2023/01/21 08:29:51;;;;;;;5.50;4.10;;;;;;;1.31;85.78;95201.02;106648;1276;23911;-84
2023/01/21 08:32:20;;;;;;;4.90;4.00;;;;;;;1.31;85.78;95205.19;106749;1275;25255;-84
2023/01/21 08:34:49;;;;;;;6.70;4.40;;;;;;;1.32;85.76;95205.36;106706;1276;22629;-84
2023/01/21 08:37:17;;;;;;;6.50;4.30;;;;;;;1.32;85.66;95206.92;106662;1276;24256;-84
2023/01/21 08:39:45;;;;;;;6.40;4.60;;;;;;;1.27;85.65;95211.90;106657;1275;23273;-84
2023/01/21 08:42:13;;;;;;;5.30;4.40;;;;;;;1.24;85.84;95214.13;106710;1276;22544;-84
2023/01/21 08:44:42;;;;;;;5.20;4.20;;;;;;;1.25;85.94;95210.15;106699;1276;22548;-84
2023/01/21 08:47:10;;;;;;;6.60;4.30;;;;;;;1.27;86.08;95214.48;106804;1276;25315;-84
2023/01/21 08:49:38;;;;;;;6.80;4.80;;;;;;;1.30;86.30;95214.19;106762;1276;22667;-84
2023/01/21 08:52:06;;;;;;;6.90;4.80;;;;;;;1.43;86.47;95211.38;106657;1276;22772;-84
2023/01/21 08:54:34;;;;;;;7.10;4.90;;;;;;;1.51;86.31;95211.11;106616;1276;25326;-84
2023/01/21 08:57:03;;;;;;;6.80;5.00;;;;;;;1.58;86.17;95214.30;106659;1276;22632;-84
2023/01/21 08:59:31;;;;;;;9.80;5.70;;;;;;;1.62;85.94;95222.13;106662;1276;24240;-84
2023/01/21 09:01:59;;;;;;;9.00;6.00;;;;;;;1.65;86.04;95221.81;106645;1276;22644;-84
2023/01/21 09:04:27;;;;;;;10.10;6.80;;;;;;;1.71;85.96;95221.70;106653;1276;23939;-84
2023/01/21 09:06:56;;;;;;;8.50;5.70;;;;;;;1.73;85.68;95220.68;106643;1266;22517;-84
2023/01/21 09:09:24;;;;;;;8.30;5.70;;;;;;;1.63;85.14;95225.61;106700;1276;24205;-84
2023/01/21 09:11:52;;;;;;;8.70;6.10;;;;;;;1.57;85.46;95228.66;106751;1275;24333;-84
2023/01/21 09:14:20;;;;;;;7.10;5.00;;;;;;;1.58;85.91;95234.41;106745;1276;22510;-85
2023/01/21 09:16:49;;;;;;;9.60;6.40;;;;;;;1.60;86.22;95239.96;106669;1276;25325;-84
2023/01/21 09:19:18;;;;;;;10.00;7.10;;;;;;;1.63;86.49;95241.05;106662;1276;25457;-84
2023/01/21 09:21:46;;;;;;;12.50;7.60;;;;;;;1.66;86.46;95241.42;106621;1276;23003;-84
2023/01/21 09:24:14;;;;;;;12.00;7.60;;;;;;;1.67;86.28;95241.60;106654;1276;24225;-84
2023/01/21 09:26:43;;;;;;;15.00;10.00;;;;;;;1.64;86.09;95243.48;106630;1276;22556;-84
2023/01/21 09:29:11;;;;;;;14.80;9.60;;;;;;;1.64;86.14;95245.74;106648;1276;22531;-84
2023/01/21 09:31:39;;;;;;;13.80;8.90;;;;;;;1.65;86.28;95243.31;106696;1275;24209;-84
2023/01/21 09:34:10;;;;;;;10.20;7.50;;;;;;;1.65;86.36;95246.44;106647;1276;22533;-84
2023/01/21 09:36:38;;;;;;;8.60;5.60;;;;;;;1.70;86.69;95247.87;106756;1276;22553;-84
2023/01/21 09:39:06;;;;;;;7.80;5.90;;;;;;;1.69;86.87;95244.73;106635;1276;22535;-84
2023/01/21 09:41:44;;;;;;;5.90;4.60;;;;;;;1.71;86.99;95242.51;106653;1276;24381;-84
2023/01/21 09:44:31;;;;;;;5.90;3.90;;;;;;;1.75;87.25;95244.45;106724;1276;22596;-84
2023/01/21 09:47:22;;;;;;;6.10;4.70;;;;;;;1.75;87.46;95250.88;106615;1276;25315;-83
2023/01/21 09:50:12;;;;;;;5.90;4.50;;;;;;;1.83;87.38;95247.14;106613;1276;22775;-84
2023/01/21 09:52:46;;;;;;;5.40;3.80;;;;;;;1.82;87.02;95240.36;106730;1275;22541;-85
2023/01/21 09:55:16;;;;;;;6.90;4.20;;;;;;;1.85;87.17;95240.04;106627;1275;25252;-84
2023/01/21 09:58:18;;;;;;;5.30;4.30;;;;;;;1.86;87.17;95232.07;106688;1276;25315;-84
2023/01/21 10:01:01;;;;;;;7.20;6.40;;;;;;;1.90;87.35;95230.89;106637;1276;22557;-84
2023/01/21 10:03:48;;;;;;;7.20;5.40;;;;;;;1.95;86.88;95230.25;106628;1276;24814;-84
2023/01/21 10:06:39;;;;;;;7.10;5.00;;;;;;;2.02;87.03;95229.60;106719;1276;24743;-84
2023/01/21 10:09:28;;;;;;;5.50;4.30;;;;;;;2.05;86.94;95228.77;106703;1276;25489;-85
2023/01/21 10:12:15;;;;;;;6.20;4.60;;;;;;;2.05;86.83;95230.33;106682;1266;22533;-84
2023/01/21 10:15:19;;;;;;;6.00;4.30;;;;;;;2.11;86.95;95231.59;106781;1276;24216;-84
2023/01/21 10:17:57;;;;;;;3.90;3.40;;;;;;;2.10;85.90;95222.21;106623;1276;25236;-84
2023/01/21 10:20:29;;;;;;;3.70;2.90;;;;;;;2.04;85.80;95223.88;106739;1260;25542;-84
2023/01/21 10:23:06;;;;;;;4.60;3.80;;;;;;;2.02;86.11;95224.92;106665;1266;23929;-84
2023/01/21 10:25:36;;;;;;;3.50;2.80;;;;;;;2.03;86.01;95233.77;106610;1276;24359;-85
2023/01/21 10:28:11;;;;;;;2.40;2.20;;;;;;;2.02;85.35;95230.83;106800;1276;23917;-84
2023/01/21 10:30:48;;;;;;;2.50;2.00;;;;;;;1.99;85.14;95228.02;106682;1276;25383;-84
2023/01/21 10:33:21;;;;;;;3.00;2.40;;;;;;;2.00;85.28;95226.65;106685;1276;23873;-78
2023/01/21 10:36:14;;;;;;;2.20;1.70;;;;;;;1.99;84.82;95225.05;106642;1276;22647;-84
2023/01/21 10:39:08;;;;;;;2.60;1.90;;;;;;;1.95;84.64;95224.17;106878;1276;22530;-84
2023/01/21 10:42:02;;;;;;;2.60;2.00;;;;;;;1.95;84.51;95224.69;106776;1275;24013;-84
2023/01/21 10:45:02;;;;;;;3.10;2.30;;;;;;;1.91;84.38;95221.19;106661;1275;22642;-84
2023/01/21 10:47:45;;;;;;;2.20;2.00;;;;;;;1.90;84.37;95220.31;106819;1276;23310;-84
2023/01/21 10:50:50;;;;;;;2.70;2.10;;;;;;;1.91;84.44;95220.84;106710;1275;22524;-84
2023/01/21 10:53:45;;;;;;;2.80;2.30;;;;;;;1.96;84.60;95222.27;106461;1275;22733;-84
2023/01/21 10:56:18;;;;;;;2.20;1.70;;;;;;;1.97;84.17;95225.92;106663;1276;22636;-84
2023/01/21 10:58:55;;;;;;;2.70;1.80;;;;;;;1.95;83.92;95225.91;106615;1276;23918;-84
2023/01/21 11:01:28;;;;;;;2.40;2.20;;;;;;;1.95;84.25;95219.32;106706;1276;22586;-84
2023/01/21 11:04:02;;;;;;;2.00;1.80;;;;;;;1.94;84.04;95220.70;106697;1275;24250;-84
2023/01/21 11:06:34;;;;;;;3.50;2.30;;;;;;;1.98;84.56;95219.16;106637;1276;25235;-84
2023/01/21 11:09:05;;;;;;;2.60;2.20;;;;;;;2.02;84.38;95217.98;106681;1276;22540;-83
2023/01/21 11:11:35;;;;;;;2.40;2.10;;;;;;;2.03;84.34;95218.51;106674;1276;25418;-84
2023/01/21 11:14:03;;;;;;;2.40;2.00;;;;;;;2.06;83.98;95231.02;106726;1276;25892;-84
2023/01/21 11:16:38;;;;;;;2.60;1.80;;;;;;;2.07;83.76;95229.65;106748;1276;22522;-84
2023/01/21 11:19:06;;;;;;;2.80;1.70;;;;;;;2.09;83.87;95236.09;106707;1276;22524;-84
2023/01/21 11:21:38;;;;;;;2.50;1.90;;;;;;;2.16;83.30;95240.65;106685;1276;25405;-84
2023/01/21 11:24:22;;;;;;;2.60;2.10;;;;;;;2.23;83.44;95241.39;106722;1254;22732;-83
2023/01/21 11:26:53;;;;;;;2.50;2.30;;;;;;;2.39;83.77;95231.97;106664;1276;25284;-84
2023/01/21 11:29:23;;;;;;;2.20;2.00;;;;;;;2.51;83.10;95228.92;106637;1276;22530;-84
2023/01/21 11:32:11;;;;;;;2.20;2.00;;;;;;;2.58;81.82;95221.34;106682;1275;25271;-84
2023/01/21 11:34:47;;;;;;;2.80;2.40;;;;;;;2.64;81.50;95229.01;106678;1276;22566;-83
2023/01/21 11:37:36;;;;;;;2.60;2.30;;;;;;;2.67;81.35;95239.11;106710;1276;22572;-84
2023/01/21 11:40:12;;;;;;;1.90;1.80;;;;;;;2.68;80.84;95239.12;106632;1276;22655;-84
2023/01/21 11:42:49;;;;;;;2.40;1.90;;;;;;;2.65;80.47;95248.45;106650;1275;22635;-84
2023/01/21 11:45:37;;;;;;;2.30;2.00;;;;;;;2.60;79.78;95242.70;106841;1275;22947;-84
2023/01/21 11:48:35;;;;;;;3.00;1.80;;;;;;;2.58;79.94;95235.92;106720;1276;25312;-84
2023/01/21 11:51:06;;;;;;;2.10;1.90;;;;;;;2.64;79.77;95225.89;106581;1276;25223;-84
2023/01/21 11:53:35;;;;;;;2.10;1.50;;;;;;;2.68;79.86;95223.82;106630;1276;25220;-84
2023/01/21 11:56:04;;;;;;;2.10;1.90;;;;;;;2.73;79.34;95216.39;106618;1276;24250;-84
2023/01/21 11:58:35;;;;;;;2.00;1.70;;;;;;;2.76;79.16;95218.48;106686;1276;22571;-83
2023/01/21 12:01:17;;;;;;;1.60;1.50;;;;;;;2.77;79.09;95222.15;106726;1276;25405;-84